Tiempo atmosférico en la estación meteorológica de Vigo, Pontevedra (120 m.)



Fecha
DESCASC
Temp. máxima en grados centígrados (hora)
DESCASC
Temp. mínima en grados centígrados (hora)
DESCASC
Temp. media en grados centígrados
DESCASC
Racha de viento máxima en m/sg (hora)
DESCASC
Velocidad máxima media en intervalos de 10 minutos(hora)
DESCASC
Precipitaciones diarias en mm
DESCASC
Precipitaciones de 00:00 a 06:00 en mm
DESCASC
Precipitaciones de 06:00 a 12:00 en mm
DESCASC
Precipitaciones de 12:00 a 18:00 en mm
DESCASC
Precipitaciones de 18:00 a 24:00 en mm
DESCASC
16-02-2020 16.2 (13:00) 13.4 (03:10) 14.8 11.39 (02:40) 6.39 (14:40) 2.2 0.2 0 1 1
14-02-2020 16.1 (16:40) 11.6 (23:59) 13.9 4.72 (18:00) 1.67 (16:00) 0.2 0.2 0 0 0
13-02-2020 15.7 (13:00) 11.8 (00:00) 13.8 8.06 (14:10) 2.78 (15:40) 2.6 0.6 1.6 0 0.4
12-02-2020 15.7 (14:40) 10.5 (00:00) 13.1 5.56 (15:40) 2.22 (16:00) 0.2 0.2 0 0 0
11-02-2020 14.5 (16:00) 10.5 (00:00) 12.5 3.33 (17:40) 1.39 (17:00) 0.4 0 0 0 0.4
10-02-2020 15.1 (13:30) 11.2 (00:00) 13.2 8.33 (14:20) 2.78 (02:30) 2 0.8 0 1.2 0
09-02-2020 14.4 (21:00) 9.7 (00:00) 12 9.72 (12:30) 4.17 (11:30) 0.8 0 0 0.2 0.6
08-02-2020 14.9 (14:30) 9.6 (00:00) 12.3 6.67 (02:30) 2.78 (02:30) 9 9 0 0 0
07-02-2020 16.8 (12:40) 11.6 (00:00) 14.2 7.78 (11:30) 3.33 (11:00) 0 0 0 0 0
06-02-2020 19.2 (14:00) 11.2 (00:00) 15.2 4.17 (15:30) 2.22 (15:00) 0 0 0 0 0
05-02-2020 20.1 (15:20) 11.1 (00:00) 15.6 5.56 (10:40) 2.5 (06:40) 0 0 0 0 0
04-02-2020 18 (14:40) 12.7 (00:00) 15.3 4.44 (21:50) 1.67 (20:30) 0 0 0 0 0
03-02-2020 22.5 (14:50) 13.4 (07:30) 17.9 8.61 (14:30) 4.17 (16:30) 0 0 0 0 0
02-02-2020 20 (14:40) 14.6 (00:00) 17.3 10.28 (14:20) 4.17 (02:30) 0 0 0 0 0
01-02-2020 16.7 (16:00) 13.9 (00:00) 15.3 8.33 (02:50) 3.89 (13:10) 3.6 0.6 1.6 1 0.4
31-01-2020 16.2 (14:40) 13.1 (00:00) 14.7 11.11 (22:40) 5 (18:20) 18.6 1 0.2 0.4 17
30-01-2020 14.8 (14:00) 12.7 (00:00) 13.8 10 (11:00) 5 (10:40) 2.8 0.2 1 0.8 0.8
29-01-2020 14.6 (13:40) 13.1 (00:00) 13.9 11.11 (16:00) 5.56 (13:50) 18.8 3.2 7.8 7.8 0
28-01-2020 13.7 (16:40) 10.8 (00:00) 12.3 7.5 (19:10) 3.06 (18:50) 3.6 0 2 1.2 0.4
27-01-2020 13.2 (20:40) 11.6 (00:00) 12.4 12.78 (06:00) 6.11 (06:40) 19 10.2 5.4 1.2 2.2
26-01-2020 14.1 (13:50) 7.6 (00:00) 10.9 8.61 (21:00) 4.44 (22:50) 1.4 0.2 0.6 0.2 0.4
25-01-2020 13.6 (13:50) 6.1 (00:00) 9.9 4.44 (14:20) 2.22 (14:30) 0 0 0 0 0
24-01-2020 16.1 (14:40) 7.8 (00:00) 12 3.61 (13:50) 1.67 (07:20) 0 0 0 0 0
23-01-2020 12.9 (16:30) 8.6 (00:00) 10.8 5 (10:10) 2.5 (10:00) 0 0 0 0 0
22-01-2020 17.1 (14:20) 7 (00:00) 12.1 8.89 (16:10) 3.89 (00:20) 0 0 0 0 0

Gráficas

Temp. máximas Temp. mínimas Temp. medias Precipitaciones Rachas de viento máximas Velocidades máximas media en intervalos de 10 minutos

Datos horarios

Fecha y hora oficial Temperatura (ºC) Velocidad del viento (km/h) Dirección del viento Racha (km/h) Dirección de racha Precipitación (mm) Presión (hPa) Tendencia (hPa) Humedad (%)
2020-02-20 23:00:00 11 5 Nordeste 12 Nordeste 0 -- -- 86
2020-02-20 22:00:00 11.4 4 Este 17 Nordeste 0 -- -- 84
2020-02-20 21:00:00 10.7 0 Calma 6 Norte 0 -- -- 86
2020-02-20 20:00:00 11.7 2 Noroeste 9 Noroeste 0 -- -- 81
2020-02-20 19:00:00 12.7 6 Noroeste 15 Norte 0 -- -- 76
2020-02-20 18:00:00 13.8 8 Norte 18 Norte 0 -- -- 69
2020-02-20 17:00:00 15.8 4 Noroeste 10 Norte 0 -- -- 60
2020-02-20 16:00:00 16.1 4 Nordeste 12 Nordeste 0 -- -- 57
2020-02-20 15:00:00 15.3 4 Norte 13 Nordeste 0 -- -- 58
2020-02-20 14:00:00 14.5 6 Nordeste 14 Norte 0 -- -- 59
2020-02-20 13:00:00 13.9 5 Norte 10 Norte 0 -- -- 59
2020-02-20 12:00:00 11.5 3 Este 12 Este 0 -- -- 77
2020-02-20 11:00:00 9.5 5 Nordeste 9 Nordeste 0 -- -- 85
2020-02-20 10:00:00 8.3 3 Sudeste 8 Sudeste 0 -- -- 91
2020-02-20 09:00:00 6.7 3 Sudeste 7 Sur 0 -- -- 96
2020-02-20 08:00:00 6.2 3 Sudeste 7 Sudeste 0 -- -- 96
2020-02-20 07:00:00 6.5 2 Este 6 Sudeste 0 -- -- 96
2020-02-20 06:00:00 -- -- -- -- -- -- -- -- --
2020-02-20 05:00:00 -- -- -- -- -- -- -- -- --
2020-02-20 04:00:00 -- -- -- -- -- -- -- -- --
2020-02-20 03:00:00 6.1 0 Calma 4 Noroeste 0 -- -- 96
2020-02-20 02:00:00 6.5 0 Calma 6 Sudeste 0 -- -- 93
2020-02-20 01:00:00 6.8 4 Sudeste 6 Sudeste 0 -- -- 92
2020-02-20 00:00:00 7.1 3 Sudeste 5 Sudeste 0 -- -- 91
2020-02-19 23:00:00 7.6 0 Calma 5 Sudeste 0 -- -- 90
2020-02-19 22:00:00 8.2 3 Sudeste 6 Sudeste 0 -- -- 88
2020-02-19 21:00:00 9 2 Sur 5 Oeste 0 -- -- 85
2020-02-19 20:00:00 10.2 3 Sudoeste 10 Oeste 0 -- -- 81
2020-02-19 19:00:00 11.3 5 Sudoeste 16 Oeste 0 -- -- 72
2020-02-19 18:00:00 12.8 6 Oeste 12 Oeste 0 -- -- 58
2020-02-19 17:00:00 14.4 4 Sudoeste 14 Oeste 0 -- -- 59
2020-02-19 16:00:00 14.7 6 Oeste 13 Oeste 0 -- -- 51
2020-02-19 15:00:00 13.9 6 Oeste 13 Oeste 0 -- -- 57
2020-02-19 14:00:00 13.8 6 Oeste 9 Oeste 0 -- -- 62
2020-02-19 13:00:00 12.6 3 Norte 8 Norte 0 -- -- 65
2020-02-19 12:00:00 11.4 2 Nordeste 6 Nordeste 0 -- -- 68
2020-02-19 11:00:00 9.4 4 Nordeste 8 Este 0 -- -- 74
2020-02-19 10:00:00 7.6 5 Este 12 Este 0 -- -- 81
2020-02-19 09:00:00 5.6 4 Este 12 Este 0 -- -- 89
2020-02-19 08:00:00 5.4 2 Este 8 Este 0 -- -- 89
2020-02-19 07:00:00 5.9 3 Sudeste 10 Nordeste 0 -- -- 86
2020-02-19 06:00:00 6.5 5 Nordeste 17 Sudeste 0 -- -- 85
2020-02-19 05:00:00 6.8 6 Este 12 Este 0 -- -- 82
2020-02-19 04:00:00 6.7 4 Nordeste 10 Nordeste 0 -- -- 83
2020-02-19 03:00:00 7.3 3 Nordeste 15 Nordeste 0 -- -- 82
2020-02-19 02:00:00 7.8 5 Nordeste 16 Nordeste 0 -- -- 80
2020-02-19 01:00:00 8.1 7 Nordeste 13 Nordeste 0 -- -- 82
2020-02-19 00:00:00 8.6 4 Nordeste 22 Nordeste 0 -- -- 82
2020-02-18 23:00:00 9.1 9 Nordeste 17 Nordeste 0 -- -- 79
2020-02-18 22:00:00 9.5 4 Nordeste 14 Nordeste 0 -- -- 79
2020-02-18 21:00:00 9.3 3 Nordeste 12 Nordeste 0 -- -- 83
2020-02-18 20:00:00 10.3 5 Norte 15 Norte 0 -- -- 81
2020-02-18 19:00:00 11.2 8 Norte 22 Norte 0 -- -- 76
2020-02-18 18:00:00 12 8 Norte 21 Norte 0 -- -- 72
2020-02-18 17:00:00 13.1 8 Norte 24 Norte 0 -- -- 67
2020-02-18 16:00:00 13.3 8 Norte 22 Norte 0 -- -- 63
2020-02-18 15:00:00 14.2 5 Norte 14 Norte 0 -- -- 52
2020-02-18 14:00:00 13.9 9 Norte 18 Nordeste 0 -- -- 55
2020-02-18 13:00:00 12.9 8 Nordeste 20 Nordeste 0 -- -- 58
2020-02-18 12:00:00 11.8 5 Nordeste 14 Nordeste 0 -- -- 64
2020-02-18 11:00:00 9.6 4 Nordeste 12 Nordeste 0 -- -- 73
2020-02-18 10:00:00 7.2 5 Nordeste 12 Nordeste 0 -- -- 78
2020-02-18 09:00:00 6.1 3 Este 8 Este 0 -- -- 84
2020-02-18 08:00:00 6.2 4 Nordeste 12 Nordeste 0 -- -- 84
2020-02-18 07:00:00 6.4 5 Nordeste 12 Nordeste 0 -- -- 83
2020-02-18 06:00:00 6.3 3 Nordeste 10 Norte 0 -- -- 81
2020-02-18 05:00:00 6.5 4 Nordeste 11 Este 0 -- -- 81
2020-02-18 04:00:00 6.6 4 Nordeste 8 Nordeste 0 -- -- 81
2020-02-18 03:00:00 6.6 3 Nordeste 8 Este 0 -- -- 82
2020-02-18 02:00:00 6.9 3 Este 8 Este 0 -- -- 84
2020-02-18 01:00:00 7.5 3 Nordeste 12 Nordeste 0 -- -- 81
2020-02-18 00:00:00 7.8 3 Este 8 Nordeste 0 -- -- 80
2020-02-17 23:00:00 8.3 0 Calma 12 Nordeste 0 -- -- 80
2020-02-17 22:00:00 9.3 6 Nordeste 17 Nordeste 0 -- -- 73
2020-02-17 21:00:00 9.9 5 Nordeste 19 Nordeste 0 -- -- 73
2020-02-17 20:00:00 10.3 7 Norte 16 Norte 0 -- -- 74
2020-02-17 19:00:00 10.8 7 Norte 19 Nordeste 0 -- -- 70
2020-02-17 18:00:00 11.6 8 Norte 24 Norte 0 -- -- 66
2020-02-17 17:00:00 12.8 8 Norte 19 Norte 0 -- -- 64
2020-02-17 16:00:00 13.3 6 Norte 22 Norte 0 -- -- 62
2020-02-17 15:00:00 13.1 7 Norte 21 Norte 0 -- -- 70
2020-02-17 14:00:00 13.6 5 Norte 19 Norte 0 -- -- 69
2020-02-17 13:00:00 13.5 6 Norte 22 Noroeste 0 -- -- 72
2020-02-17 12:00:00 13.3 5 Norte 19 Norte 0 -- -- 72
2020-02-17 11:00:00 12 8 Norte 16 Norte 0 -- -- 78
2020-02-17 10:00:00 11.3 7 Norte 13 Norte 0 -- -- 81
2020-02-17 09:00:00 11 3 Nordeste 9 Nordeste 0.2 -- -- 91
2020-02-17 08:00:00 10.7 2 Este 6 Este 0 -- -- 92
2020-02-17 07:00:00 10.7 3 Sudoeste 6 Sudoeste 0 -- -- 100
2020-02-17 06:00:00 10.7 0 Calma 7 Sudoeste 0 -- -- 100
2020-02-17 05:00:00 10.7 3 Sudoeste 12 Nordeste 1.4 -- -- 100
2020-02-17 04:00:00 11.2 3 Sur 12 Nordeste 5 -- -- 100
2020-02-17 03:00:00 11.8 4 Sudoeste 19 Oeste 7.6 -- -- 100
2020-02-17 02:00:00 12.7 5 Sudoeste 27 Sudoeste 4 -- -- 100
2020-02-17 01:00:00 14.6 13 Sudoeste 32 Sudoeste 2.6 -- -- 100
2020-02-17 00:00:00 14.7 13 Sudoeste 33 Sudoeste 0.8 -- -- 99
2020-02-16 23:00:00 14.9 14 Sudoeste 32 Sudoeste 0 -- -- 98
2020-02-16 22:00:00 15 16 Sudoeste 33 Sudoeste 0 -- -- 97
2020-02-16 21:00:00 15.1 15 Sudoeste 32 Sudoeste 0 -- -- 96
2020-02-16 20:00:00 15 15 Sudoeste 36 Sudoeste 0.2 -- -- 95
2020-02-16 19:00:00 15 19 Sudoeste 33 Sur 0 -- -- 95
2020-02-16 18:00:00 14.6 16 Sudoeste 35 Sur 0.2 -- -- 96
2020-02-16 17:00:00 14.9 18 Sudoeste 30 Sudoeste 0.2 -- -- 93
2020-02-16 16:00:00 15.2 21 Sudoeste 39 Sudoeste 0 -- -- 91
2020-02-16 15:00:00 15.7 19 Sudoeste 41 Sur 0 -- -- 88
2020-02-16 14:00:00 15.5 21 Sudoeste 37 Sur 0 -- -- 88
2020-02-16 13:00:00 16.2 18 Sudoeste 30 Sudoeste 0.6 -- -- 87
2020-02-16 12:00:00 15.1 14 Sudoeste 35 Sudoeste 0 -- -- 90
2020-02-16 11:00:00 14.8 16 Sudoeste 33 Sudoeste 0 -- -- 89
2020-02-16 10:00:00 14.3 17 Sudoeste 33 Sur 0 -- -- 91
2020-02-16 09:00:00 14 16 Sudoeste 28 Sur 0 -- -- 91
2020-02-16 08:00:00 13.8 13 Sudoeste 28 Sur 0 -- -- 94
2020-02-16 07:00:00 13.9 14 Sudoeste 31 Sur 0 -- -- 91
2020-02-16 06:00:00 13.9 14 Sur 32 Sudoeste 0 -- -- 91
2020-02-16 05:00:00 14 11 Sudoeste 23 Sudoeste 0 -- -- 92
2020-02-16 04:00:00 13.7 9 Sur 21 Sur 0 -- -- 94
2020-02-16 03:00:00 13.5 10 Sur 41 Sur 0.2 -- -- 95
2020-02-16 02:00:00 14.1 14 Sur 26 Sur 0 -- -- 88
2020-02-16 01:00:00 14.3 12 Sur 30 Sur 0 -- -- 85
2020-02-16 00:00:00 14.2 12 Sur 31 Sur 0 -- -- 87
2020-02-15 23:00:00 14.1 14 Sur 28 Sur 0 -- -- 87
2020-02-15 22:00:00 13.9 12 Sur 38 Sur 0 -- -- 89
2020-02-15 21:00:00 14.1 11 Sudoeste 28 Sudoeste 0 -- -- 87
2020-02-15 20:00:00 13.6 14 Sudoeste 26 Sur 0 -- -- 90
2020-02-15 19:00:00 13.9 13 Sur 23 Sur 0 -- -- 88
2020-02-15 18:00:00 13.9 11 Sur 24 Sudoeste 0 -- -- 87
2020-02-15 17:00:00 14.2 14 Sudoeste 29 Sur 0 -- -- 87
2020-02-15 16:00:00 14.8 15 Sur 31 Sur 0 -- -- 81
2020-02-15 15:00:00 14.9 13 Sudoeste 33 Sur 0 -- -- 78
2020-02-15 14:00:00 14.9 13 Sur 33 Sur 0 -- -- 77
2020-02-15 13:00:00 13.9 13 Sur 41 Sur 0 -- -- 81
2020-02-15 12:00:00 13.6 17 Sur 33 Sur 0 -- -- 78
2020-02-15 11:00:00 12.9 10 Sur 24 Sur 0 -- -- 81
2020-02-15 10:00:00 12.7 9 Sur 19 Sur 0 -- -- 81
2020-02-15 09:00:00 12 9 Sur 27 Sur 0 -- -- 84
2020-02-15 08:00:00 12 10 Sur 19 Sur 0 -- -- 84
2020-02-15 07:00:00 11.2 8 Sur 15 Sur 0 -- -- 89
2020-02-15 06:00:00 10.7 6 Sur 17 Sur 0 -- -- 92
2020-02-15 05:00:00 10.4 5 Sur 13 Sur 0 -- -- 94
2020-02-15 04:00:00 10.5 5 Sur 12 Sudeste 0 -- -- 95
2020-02-15 03:00:00 10.6 3 Sur 11 Sudeste 0 -- -- 94
2020-02-15 02:00:00 11.3 5 Sur 12 Sur 0 -- -- 91
2020-02-15 01:00:00 11.1 4 Sur 12 Sur 0 -- -- 92
2020-02-15 00:00:00 11.6 2 Sudeste 5 Sudeste 0 -- -- 90
2020-02-14 23:00:00 12.1 0 Calma 6 Sudeste 0 -- -- 85
2020-02-14 22:00:00 12 0 Calma 5 Sudeste 0 -- -- 88
2020-02-14 21:00:00 12.2 2 Sudeste 4 Sudeste 0 -- -- 92
2020-02-14 20:00:00 13.1 3 Sur 8 Sur 0 -- -- 85
2020-02-14 19:00:00 14.2 4 Sur 10 Sudoeste 0 -- -- 79
2020-02-14 18:00:00 15 5 Sudoeste 17 Sudoeste 0 -- -- 80
2020-02-14 17:00:00 15.9 4 Sudoeste 13 Oeste 0 -- -- 75
2020-02-14 16:00:00 15.9 6 Sudoeste 11 Sudoeste 0 -- -- 75
2020-02-14 15:00:00 15.7 5 Sudoeste 12 Sudoeste 0 -- -- 73
2020-02-14 14:00:00 15.2 6 Sudoeste 10 Sur 0 -- -- 80
2020-02-14 13:00:00 14.8 2 Sudoeste 9 Sur 0 -- -- 82
2020-02-14 12:00:00 14.3 4 Sudeste 13 Sur 0 -- -- 88
2020-02-14 11:00:00 13.4 4 Sudoeste 8 Sudoeste 0 -- -- 93
2020-02-14 10:00:00 13 3 Sudeste 8 Sudeste 0 -- -- 94
2020-02-14 09:00:00 12.2 0 Calma 6 Sudeste 0 -- -- 95
2020-02-14 08:00:00 12.4 0 Calma 7 Sur 0 -- -- 96
2020-02-14 07:00:00 12.2 0 Calma 4 Sudeste 0 -- -- 97
2020-02-14 06:00:00 12.3 0 Calma 10 Sudoeste 0 -- -- 96
2020-02-14 05:00:00 12.4 3 Sudoeste 8 Sur 0.2 -- -- 98
2020-02-14 04:00:00 12.4 3 Sur 8 Sur 0 -- -- 97
2020-02-14 03:00:00 12.4 2 Sur 8 Sudoeste 0 -- -- 96
2020-02-14 02:00:00 12.4 3 Sur 9 Sudeste 0 -- -- 96
2020-02-14 01:00:00 12.5 3 Sur 8 Sur 0 -- -- 96
2020-02-14 00:00:00 12.9 0 Calma 9 Sudoeste 0 -- -- 94
2020-02-13 23:00:00 13.5 4 Sudoeste 12 Sudoeste 0 -- -- 93
2020-02-13 22:00:00 13.6 6 Sudoeste 13 Sur 0.2 -- -- 91
2020-02-13 21:00:00 13.3 4 Sur 10 Sur 0 -- -- 93
2020-02-13 20:00:00 13.6 4 Sur 11 Sur 0.2 -- -- 88
2020-02-13 19:00:00 14.2 4 Sudoeste 11 Sudoeste 0 -- -- 85
2020-02-13 18:00:00 14.6 5 Sudoeste 19 Sudoeste 0 -- -- 86
2020-02-13 17:00:00 15.3 7 Sudoeste 22 Oeste 0 -- -- 86
2020-02-13 16:00:00 15.1 8 Sudoeste 22 Sudoeste 0 -- -- 89
2020-02-13 15:00:00 14.6 8 Sudoeste 29 Sudoeste 0 -- -- 90
2020-02-13 14:00:00 14.9 9 Sudoeste 21 Sudoeste 0 -- -- 90
2020-02-13 13:00:00 15.7 8 Sudoeste 23 Sudoeste 0 -- -- 85
2020-02-13 12:00:00 14 8 Sudoeste 23 Sudoeste 0.2 -- -- 94
2020-02-13 11:00:00 13.3 8 Sudoeste 15 Sudoeste 0 -- -- 95
2020-02-13 10:00:00 12.7 9 Sudoeste 17 Sudoeste 0 -- -- 94
2020-02-13 09:00:00 11.9 0 Calma 9 Oeste 0 -- -- 99
2020-02-13 08:00:00 11.8 5 Sur 13 Sudoeste 0.2 -- -- 100
2020-02-13 07:00:00 11.9 7 Sudoeste 23 Oeste 1.2 -- -- 98
2020-02-13 06:00:00 12.5 6 Sudoeste 14 Sur 0.4 -- -- 91
2020-02-13 05:00:00 12.5 3 Sur 13 Sudoeste 0 -- -- 92
2020-02-13 04:00:00 12.7 8 Sudoeste 18 Sur 0 -- -- 91
2020-02-13 03:00:00 12.5 7 Sudoeste 16 Sur 0 -- -- 95
2020-02-13 02:00:00 12.4 6 Sudoeste 19 Sur 0.2 -- -- 97
2020-02-13 01:00:00 12.7 6 Sudoeste 17 Sur 0 -- -- 93
2020-02-13 00:00:00 12.9 6 Sudoeste 11 Sudoeste 0 -- -- 91
2020-02-12 23:00:00 12.9 5 Sudoeste 14 Sudoeste 0 -- -- 89
2020-02-12 22:00:00 12.6 4 Sudoeste 8 Sur 0 -- -- 91
2020-02-12 21:00:00 12.7 3 Sudoeste 9 Oeste 0 -- -- 92
2020-02-12 20:00:00 12.7 5 Sudoeste 13 Sudoeste 0 -- -- 93
2020-02-12 19:00:00 12.8 6 Oeste 13 Oeste 0 -- -- 94
2020-02-12 18:00:00 13.6 4 Sudoeste 15 Oeste 0 -- -- 90
2020-02-12 17:00:00 14.2 5 Sudoeste 16 Oeste 0 -- -- 84
2020-02-12 16:00:00 14.4 8 Sudoeste 20 Sudoeste 0 -- -- 85
2020-02-12 15:00:00 15.5 5 Oeste 11 Oeste 0 -- -- 85
2020-02-12 14:00:00 14.7 6 Oeste 14 Oeste 0 -- -- 84
2020-02-12 13:00:00 15.5 3 Este 10 Norte 0 -- -- 81
2020-02-12 12:00:00 13.8 3 Norte 9 Este 0 -- -- 88
2020-02-12 11:00:00 13.1 3 Sudeste 6 Este 0 -- -- 92
2020-02-12 10:00:00 11.6 3 Nordeste 9 Norte 0 -- -- 98
2020-02-12 09:00:00 10.7 4 Este 10 Nordeste 0 -- -- 99
2020-02-12 08:00:00 10.7 4 Nordeste 10 Este 0 -- -- 100
2020-02-12 07:00:00 10.6 0 Calma 11 Este 0 -- -- 100
2020-02-12 06:00:00 11 3 Nordeste 11 Norte 0 -- -- 100
2020-02-12 05:00:00 11.1 4 Nordeste 8 Nordeste 0 -- -- 100
2020-02-12 04:00:00 11.4 0 Calma 5 Este 0 -- -- 100
2020-02-12 03:00:00 11.5 3 Norte 6 Norte 0.2 -- -- 100
2020-02-12 02:00:00 11.4 0 Calma 5 Sudeste 0 -- -- 100
2020-02-12 01:00:00 11.3 0 Calma 5 Oeste 0 -- -- 99
2020-02-12 00:00:00 11.7 2 Sudoeste 4 Sur 0.2 -- -- 99
2020-02-11 23:00:00 11.8 2 Oeste 7 Oeste 0 -- -- 98
2020-02-11 22:00:00 11.9 3 Oeste 8 Noroeste 0.2 -- -- 97
2020-02-11 21:00:00 12.3 0 Calma 7 Noroeste 0 -- -- 95
2020-02-11 20:00:00 12.5 2 Noroeste 8 Nordeste 0 -- -- 94
2020-02-11 19:00:00 12.9 3 Norte 8 Norte 0 -- -- 92
2020-02-11 18:00:00 13.3 4 Norte 12 Norte 0 -- -- 93
2020-02-11 17:00:00 13.8 5 Noroeste 9 Oeste 0 -- -- 90
2020-02-11 16:00:00 14.5 0 Calma 5 Noroeste 0 -- -- 82
2020-02-11 15:00:00 13.7 0 Calma 8 Oeste 0 -- -- 84
2020-02-11 14:00:00 13.7 4 Noroeste 8 Noroeste 0 -- -- 91
2020-02-11 13:00:00 13.9 4 Oeste 9 Oeste 0 -- -- 91
2020-02-11 12:00:00 13.3 4 Oeste 8 Oeste 0 -- -- 93
2020-02-11 11:00:00 13.3 2 Sur 5 Sur 0 -- -- 92
2020-02-11 10:00:00 12.2 3 Nordeste 6 Nordeste 0 -- -- 97
2020-02-11 09:00:00 11.6 0 Calma 3 Sudeste 0 -- -- 97
2020-02-11 08:00:00 11.5 0 Calma 5 Sudeste 0 -- -- 97
2020-02-11 07:00:00 11.5 0 Calma 5 Sudeste 0 -- -- 97
2020-02-11 06:00:00 11.4 2 Este 6 Este 0 -- -- 98
2020-02-11 05:00:00 11.5 0 Calma 4 Sudeste 0 -- -- 98
2020-02-11 04:00:00 11.2 0 Calma 4 Sudeste 0 -- -- 99
2020-02-11 03:00:00 11 2 Sudeste 7 Sudeste 0 -- -- 100
2020-02-11 02:00:00 10.6 3 Sudeste 6 Sur 0 -- -- 99
2020-02-11 01:00:00 11 3 Sudeste 7 Sudeste 0 -- -- 98
2020-02-11 00:00:00 11.2 0 Calma 6 Sur 0 -- -- 98
2020-02-10 23:00:00 11.8 4 Sur 8 Sur 0 -- -- 97
2020-02-10 22:00:00 12 3 Sur 6 Sur 0 -- -- 96
2020-02-10 21:00:00 12.7 0 Calma 7 Sudeste 0 -- -- 95
2020-02-10 20:00:00 13.2 4 Sudoeste 10 Sudoeste 0 -- -- 95
2020-02-10 19:00:00 13.2 4 Sudoeste 12 Sudoeste 0 -- -- 94
2020-02-10 18:00:00 13.9 4 Sudoeste 17 Oeste 0 -- -- 94
2020-02-10 17:00:00 14.1 8 Sudoeste 21 Oeste 0 -- -- 93
2020-02-10 16:00:00 14.1 6 Sudoeste 21 Sur 0 -- -- 95
2020-02-10 15:00:00 13.5 7 Sudoeste 30 Sudoeste 0.6 -- -- 100
2020-02-10 14:00:00 13.8 9 Sudoeste 24 Sudoeste 0.4 -- -- 96
2020-02-10 13:00:00 14.8 8 Sudoeste 19 Sur 0.2 -- -- 95
2020-02-10 12:00:00 14.3 5 Sudoeste 15 Oeste 0 -- -- 98
2020-02-10 11:00:00 14.1 6 Sudoeste 15 Sudoeste 0 -- -- 98
2020-02-10 10:00:00 13.6 7 Sudoeste 14 Sur 0 -- -- 99
2020-02-10 09:00:00 13.5 8 Sudoeste 16 Sur 0 -- -- 97
2020-02-10 08:00:00 13.5 6 Sudoeste 11 Sudoeste 0 -- -- 97
2020-02-10 07:00:00 13.2 5 Sudoeste 17 Sudoeste 0 -- -- 99
2020-02-10 06:00:00 13.3 9 Sudoeste 15 Sudoeste 0.2 -- -- 98
2020-02-10 05:00:00 13.4 6 Sudoeste 15 Sudoeste 0 -- -- 97
2020-02-10 04:00:00 13.4 9 Sudoeste 24 Sudoeste 0.2 -- -- 99
2020-02-10 03:00:00 13.6 8 Sudoeste 24 Sudoeste 0 -- -- 98
2020-02-10 02:00:00 13.6 9 Sudoeste 19 Sudoeste 0.2 -- -- 99
2020-02-10 01:00:00 13.6 9 Sudoeste 17 Sudoeste 0.2 -- -- 98
2020-02-10 00:00:00 13.6 8 Sudoeste 21 Oeste 0 -- -- 99
2020-02-09 23:00:00 13.8 9 Sudoeste 21 Sudoeste 0 -- -- 99
2020-02-09 22:00:00 13.8 8 Sudoeste 18 Sudoeste 0.4 -- -- 99
2020-02-09 21:00:00 14.4 8 Sudoeste 23 Oeste 0 -- -- 96
2020-02-09 20:00:00 14.1 8 Sudoeste 17 Sudoeste 0 -- -- 97
2020-02-09 19:00:00 13.8 7 Sudoeste 17 Sur 0.2 -- -- 98
2020-02-09 18:00:00 13.5 6 Sur 21 Sur 0.2 -- -- 97
2020-02-09 17:00:00 13.4 8 Sur 20 Sur 0 -- -- 96
2020-02-09 16:00:00 13.2 9 Sur 28 Sudoeste 0 -- -- 94
2020-02-09 15:00:00 13.3 11 Sur 33 Sur 0 -- -- 91
2020-02-09 14:00:00 13.3 12 Sur 32 Sur 0 -- -- 90
2020-02-09 13:00:00 13.2 13 Sur 35 Sur 0 -- -- 89
2020-02-09 12:00:00 13 15 Sur 31 Sudeste 0 -- -- 87
2020-02-09 11:00:00 12.3 12 Sur 32 Sur 0 -- -- 89
2020-02-09 10:00:00 11.9 9 Sur 21 Sudeste 0 -- -- 88
2020-02-09 09:00:00 11.5 8 Sur 26 Sudoeste 0 -- -- 88
2020-02-09 08:00:00 11.5 6 Sur 24 Sur 0 -- -- 86
2020-02-09 07:00:00 11.5 9 Sur 23 Sur 0 -- -- 83
2020-02-09 06:00:00 11.3 11 Sur 29 Sudoeste 0 -- -- 83
2020-02-09 05:00:00 11.2 9 Sur 23 Sur 0 -- -- 82
2020-02-09 04:00:00 10.8 5 Sur 15 Sur 0 -- -- 83
2020-02-09 03:00:00 10.6 6 Sur 22 Sur 0 -- -- 82
2020-02-09 02:00:00 10.2 5 Sur 17 Sur 0 -- -- 83
2020-02-09 01:00:00 9.8 6 Sur 14 Sur 0 -- -- 85
2020-02-09 00:00:00 9.7 4 Sur 10 Sudeste 0 -- -- 83
2020-02-08 23:00:00 10.2 4 Sur 8 Sur 0 -- -- 83
2020-02-08 22:00:00 9.7 3 Sur 9 Sur 0 -- -- 89
2020-02-08 21:00:00 10.2 2 Sur 8 Sudoeste 0 -- -- 87
2020-02-08 20:00:00 10.9 3 Sudoeste 6 Sur 0 -- -- 84
2020-02-08 19:00:00 11.4 2 Sudoeste 9 Oeste 0 -- -- 81
2020-02-08 18:00:00 12.1 5 Sudoeste 13 Sudoeste 0 -- -- 78
2020-02-08 17:00:00 12.9 5 Sudoeste 16 Oeste 0 -- -- 77
2020-02-08 16:00:00 13.9 6 Sudoeste 20 Oeste 0 -- -- 74
2020-02-08 15:00:00 14.4 6 Oeste 17 Oeste 0 -- -- 68
2020-02-08 14:00:00 14.4 4 Oeste 15 Oeste 0 -- -- 67
2020-02-08 13:00:00 13.6 6 Oeste 14 Oeste 0 -- -- 74
2020-02-08 12:00:00 12.3 4 Noroeste 7 Norte 0 -- -- 87
2020-02-08 11:00:00 11.4 0 Calma 5 Sudeste 0 -- -- 95
2020-02-08 10:00:00 10.2 2 Sur 5 Sudeste 0 -- -- 99
2020-02-08 09:00:00 9.7 0 Calma 6 Nordeste 0 -- -- 97
2020-02-08 08:00:00 10.3 0 Calma 8 Norte 0 -- -- 94
2020-02-08 07:00:00 10.7 3 Norte 9 Noroeste 0 -- -- 94
2020-02-08 06:00:00 10.5 2 Sur 9 Norte 1.8 -- -- 96
2020-02-08 05:00:00 11.2 6 Sudoeste 17 Sur 1.2 -- -- 97
2020-02-08 04:00:00 11.1 4 Sudoeste 12 Sudoeste 2.2 -- -- 96
2020-02-08 03:00:00 11.4 5 Sudoeste 24 Sudoeste 3.8 -- -- 96
2020-02-08 02:00:00 13 4 Sudoeste 12 Sudoeste 0 -- -- 86
2020-02-08 01:00:00 13 2 Sur 10 Sur 0 -- -- 85
2020-02-08 00:00:00 13.1 4 Sur 11 Sur 0 -- -- 85
2020-02-07 23:00:00 13.2 7 Sudoeste 20 Oeste 0 -- -- 87
2020-02-07 22:00:00 13.6 8 Sudoeste 21 Sudoeste 0 -- -- 88
2020-02-07 21:00:00 13.9 6 Sudoeste 18 Sudoeste 0 -- -- 85
2020-02-07 20:00:00 14.1 6 Sudoeste 16 Sur 0 -- -- 85
2020-02-07 19:00:00 14.4 8 Sudoeste 15 Sur 0 -- -- 84
2020-02-07 18:00:00 14.7 7 Sudoeste 21 Sudoeste 0 -- -- 83
2020-02-07 17:00:00 15.1 9 Sudoeste 23 Sur 0 -- -- 82
2020-02-07 16:00:00 15 9 Sudoeste 19 Sur 0 -- -- 83
2020-02-07 15:00:00 15.6 10 Sudoeste 21 Sur 0 -- -- 79
2020-02-07 14:00:00 15.2 9 Sudoeste 21 Oeste 0 -- -- 81
2020-02-07 13:00:00 16.7 9 Sur 24 Sur 0 -- -- 71
2020-02-07 12:00:00 15.6 10 Sur 28 Sur 0 -- -- 75
2020-02-07 11:00:00 14.8 12 Sur 21 Sur 0 -- -- 75
2020-02-07 10:00:00 13.5 7 Sur 14 Sur 0 -- -- 82
2020-02-07 09:00:00 12.7 5 Sur 10 Sur 0 -- -- 86
2020-02-07 08:00:00 12.6 3 Sur 9 Sur 0 -- -- 86
2020-02-07 07:00:00 13 4 Sur 9 Sur 0 -- -- 84
2020-02-07 06:00:00 13 4 Sur 7 Sur 0 -- -- 83
2020-02-07 05:00:00 12.3 2 Sur 8 Sur 0 -- -- 83
2020-02-07 04:00:00 11.8 3 Sur 8 Sur 0 -- -- 85
2020-02-07 03:00:00 11.7 3 Sur 10 Sur 0 -- -- 85
2020-02-07 02:00:00 12.1 3 Sur 11 Sur 0 -- -- 82
2020-02-07 01:00:00 12.7 3 Sur 10 Sudeste 0 -- -- 80
2020-02-07 00:00:00 12.7 5 Sur 14 Este 0 -- -- 80
2020-02-06 23:00:00 12.2 3 Sudeste 8 Sudeste 0 -- -- 82
2020-02-06 22:00:00 11.9 2 Este 10 Sudeste 0 -- -- 83
2020-02-06 21:00:00 12.2 0 Calma 13 Sudoeste 0 -- -- 81
2020-02-06 20:00:00 13 4 Sudoeste 13 Oeste 0 -- -- 78
2020-02-06 19:00:00 13.9 4 Noroeste 7 Noroeste 0 -- -- 71
2020-02-06 18:00:00 15 3 Norte 5 Nordeste 0 -- -- 71
2020-02-06 17:00:00 16.2 3 Sudoeste 13 Oeste 0 -- -- 60
2020-02-06 16:00:00 16.9 5 Oeste 15 Oeste 0 -- -- 61
2020-02-06 15:00:00 17.6 8 Noroeste 14 Oeste 0 -- -- 55
2020-02-06 14:00:00 19.2 6 Sudoeste 14 Sur 0 -- -- 49
2020-02-06 13:00:00 16.9 0 Calma 13 Este 0 -- -- 55
2020-02-06 12:00:00 15.9 5 Este 11 Este 0 -- -- 56
2020-02-06 11:00:00 13.6 4 Sudeste 11 Sudeste 0 -- -- 62
2020-02-06 10:00:00 12.7 3 Sudeste 12 Sudeste 0 -- -- 65
2020-02-06 09:00:00 11.2 3 Nordeste 9 Este 0 -- -- 65
2020-02-06 08:00:00 11.7 3 Sudeste 8 Sudeste 0 -- -- 62
2020-02-06 07:00:00 11.7 3 Este 9 Sudeste 0 -- -- 61
2020-02-06 06:00:00 11.6 3 Sudeste 10 Este 0 -- -- 61
2020-02-06 05:00:00 11.6 4 Sudeste 10 Sudeste 0 -- -- 60
2020-02-06 04:00:00 11.6 3 Este 11 Este 0 -- -- 60
2020-02-06 03:00:00 11.3 3 Este 8 Este 0 -- -- 62
2020-02-06 02:00:00 11.6 3 Este 8 Este 0 -- -- 62
2020-02-06 01:00:00 11.7 4 Este 9 Este 0 -- -- 68
2020-02-06 00:00:00 12.1 3 Nordeste 11 Este 0 -- -- 73
2020-02-05 23:00:00 12 2 Este 7 Este 0 -- -- 77
2020-02-05 22:00:00 11.6 0 Calma 4 Nordeste 0 -- -- 83
2020-02-05 21:00:00 12.1 0 Calma 6 Sudeste 0 -- -- 81
2020-02-05 20:00:00 13.1 3 Sur 5 Sudeste 0 -- -- 77
2020-02-05 19:00:00 14.8 4 Sudoeste 9 Oeste 0 -- -- 69
2020-02-05 18:00:00 16.8 3 Sudoeste 13 Oeste 0 -- -- 62
2020-02-05 17:00:00 18.3 5 Oeste 10 Oeste 0 -- -- 54
2020-02-05 16:00:00 19.2 5 Noroeste 10 Oeste 0 -- -- 54
2020-02-05 15:00:00 19.5 4 Sudeste 12 Este 0 -- -- 52
2020-02-05 14:00:00 18.5 5 Este 16 Este 0 -- -- 57
2020-02-05 13:00:00 17.2 5 Este 18 Nordeste 0 -- -- 60
2020-02-05 12:00:00 15.2 7 Este 15 Este 0 -- -- 65
2020-02-05 11:00:00 13.9 6 Este 20 Este 0 -- -- 70
2020-02-05 10:00:00 11.4 6 Nordeste 14 Este 0 -- -- 82
2020-02-05 09:00:00 11.2 8 Este 18 Nordeste 0 -- -- 84
2020-02-05 08:00:00 11.3 8 Nordeste 17 Este 0 -- -- 85
2020-02-05 07:00:00 11.9 5 Nordeste 18 Este 0 -- -- 83
2020-02-05 06:00:00 12.3 7 Este 16 Este 0 -- -- 82
2020-02-05 05:00:00 12.1 6 Este 16 Este 0 -- -- 84
2020-02-05 04:00:00 12.6 5 Este 16 Este 0 -- -- 83
2020-02-05 03:00:00 12.9 5 Nordeste 13 Nordeste 0 -- -- 83
2020-02-05 02:00:00 13.1 6 Nordeste 14 Este 0 -- -- 83
2020-02-05 01:00:00 13.1 4 Nordeste 10 Nordeste 0 -- -- 83
2020-02-05 00:00:00 13.5 4 Nordeste 9 Este 0 -- -- 83
2020-02-04 23:00:00 14.1 0 Calma 11 Este 0 -- -- 80
2020-02-04 22:00:00 14.7 5 Nordeste 16 Este 0 -- -- 78
2020-02-04 21:00:00 14.9 3 Nordeste 14 Este 0 -- -- 78
2020-02-04 20:00:00 15.1 5 Nordeste 13 Nordeste 0 -- -- 78
2020-02-04 19:00:00 15.9 2 Sur 5 Sur 0 -- -- 79
2020-02-04 18:00:00 17.3 3 Norte 5 Norte 0 -- -- 71
2020-02-04 12:00:00 -- -- -- -- -- -- -- -- --
2020-02-04 11:00:00 13.8 0 Calma 4 Nordeste 0 -- -- 94
2020-02-04 10:00:00 13.2 0 Calma 4 Sur 0 -- -- 97
2020-02-04 09:00:00 12.9 0 Calma 5 Sudeste 0 -- -- 97
2020-02-04 08:00:00 12.8 2 Sur 4 Sudeste 0 -- -- 98
2020-02-04 07:00:00 12.9 3 Norte 7 Norte 0 -- -- 98
2020-02-04 06:00:00 12.8 0 Calma 5 Sudeste 0 -- -- 96
2020-02-04 05:00:00 12.9 2 Sudeste 5 Sudoeste 0 -- -- 97
2020-02-04 04:00:00 13.2 3 Sudoeste 6 Sudoeste 0 -- -- 97
2020-02-04 03:00:00 13.4 3 Sudoeste 8 Sudoeste 0 -- -- 97
2020-02-04 02:00:00 13.8 0 Calma 6 Oeste 0 -- -- 95
2020-02-04 01:00:00 14 0 Calma 9 Oeste 0 -- -- 94
2020-02-04 00:00:00 14.4 3 Sudoeste 12 Oeste 0 -- -- 93
2020-02-03 23:00:00 14.6 3 Sudoeste 17 Sudoeste 0 -- -- 89
2020-02-03 22:00:00 15.6 8 Sudoeste 16 Oeste 0 -- -- 82
2020-02-03 21:00:00 16.8 8 Sudoeste 14 Sur 0 -- -- 73
2020-02-03 20:00:00 17 4 Sudoeste 15 Sur 0 -- -- 71
2020-02-03 19:00:00 18.1 4 Sur 15 Sudoeste 0 -- -- 67
2020-02-03 18:00:00 19.7 9 Sur 24 Sudoeste 0 -- -- 60
2020-02-03 17:00:00 20.7 10 Sudoeste 24 Sur 0 -- -- 59
2020-02-03 16:00:00 21.9 10 Sudoeste 22 Sudoeste 0 -- -- 56
2020-02-03 15:00:00 22.4 11 Sudoeste 31 Sudoeste 0 -- -- 54
2020-02-03 14:00:00 22.1 12 Sudoeste 25 Sur 0 -- -- 55
2020-02-03 13:00:00 21.9 9 Sur 19 Sur 0 -- -- 56
2020-02-03 12:00:00 20.6 7 Sur 14 Sur 0 -- -- 58
2020-02-03 11:00:00 18.1 4 Sur 10 Sudeste 0 -- -- 62
2020-02-03 10:00:00 15 5 Sur 13 Sur 0 -- -- 68
2020-02-03 09:00:00 13.9 3 Sudeste 10 Sur 0 -- -- 74
2020-02-03 08:00:00 13.5 6 Sudeste 10 Sudeste 0 -- -- 79
2020-02-03 07:00:00 13.7 4 Sudeste 9 Sudeste 0 -- -- 81
2020-02-03 06:00:00 14.3 4 Sur 7 Sudeste 0 -- -- 83
2020-02-03 05:00:00 14.6 2 Nordeste 8 Este 0 -- -- 85
2020-02-03 04:00:00 15 4 Sudeste 14 Sur 0 -- -- 84
2020-02-03 03:00:00 14.7 5 Sudeste 17 Sudeste 0 -- -- 88
2020-02-03 02:00:00 14.7 3 Nordeste 10 Este 0 -- -- 88
2020-02-03 01:00:00 14.7 4 Nordeste 7 Este 0 -- -- 89
2020-02-03 00:00:00 15 2 Nordeste 6 Sudeste 0 -- -- 86
2020-02-02 23:00:00 15.3 2 Este 14 Sudeste 0 -- -- 81
2020-02-02 22:00:00 16.1 3 Sur 12 Sur 0 -- -- 73
2020-02-02 21:00:00 16.6 6 Sur 19 Sur 0 -- -- 73
2020-02-02 20:00:00 16.3 0 Calma 24 Sur 0 -- -- 73
2020-02-02 19:00:00 17.6 9 Sur 22 Sur 0 -- -- 68
2020-02-02 18:00:00 18.3 7 Sur 21 Sur 0 -- -- 67
2020-02-02 17:00:00 18.9 14 Sur 28 Sudoeste 0 -- -- 67
2020-02-02 16:00:00 19.8 12 Sur 32 Sur 0 -- -- 66
2020-02-02 15:00:00 19.9 14 Sur 37 Sur 0 -- -- 68
2020-02-02 14:00:00 19.7 14 Sur 32 Sudeste 0 -- -- 69
2020-02-02 13:00:00 19.3 10 Sudoeste 28 Sur 0 -- -- 71
2020-02-02 12:00:00 17.9 10 Sur 23 Sur 0 -- -- 78
2020-02-02 11:00:00 16.5 9 Sur 24 Sur 0 -- -- 85
2020-02-02 10:00:00 15.3 6 Sur 22 Sur 0 -- -- 88
2020-02-02 09:00:00 15 8 Sur 24 Sur 0 -- -- 89
2020-02-02 08:00:00 15 13 Sur 23 Sudoeste 0 -- -- 90
2020-02-02 07:00:00 15 8 Sudoeste 26 Sur 0 -- -- 92
2020-02-02 06:00:00 14.8 10 Sur 26 Sur 0 -- -- 94
2020-02-02 05:00:00 14.9 12 Sudoeste 30 Sudoeste 0 -- -- 95
2020-02-02 04:00:00 14.7 13 Sudoeste 28 Sudeste 0 -- -- 96
2020-02-02 03:00:00 14.6 12 Sudoeste 30 Sudoeste 0 -- -- 97
2020-02-02 02:00:00 14.9 6 Sur 21 Sur 0 -- -- 97
2020-02-02 01:00:00 15 3 Sur 21 Sudoeste 0 -- -- 100
2020-02-02 00:00:00 15 4 Sur 15 Sudoeste 0.2 -- -- 100
2020-02-01 23:00:00 15.1 5 Sur 14 Sudoeste 0.2 -- -- 99
2020-02-01 22:00:00 15.2 6 Sudoeste 19 Sur 0 -- -- 99
2020-02-01 21:00:00 15.5 12 Sudoeste 26 Sudoeste 0 -- -- 97
2020-02-01 20:00:00 15.6 10 Sudoeste 25 Sudoeste 0 -- -- 97
2020-02-01 19:00:00 15.8 10 Sudoeste 24 Sur 0 -- -- 97
2020-02-01 18:00:00 16.2 12 Sudoeste 25 Sur 0 -- -- 94
2020-02-01 17:00:00 16.2 11 Sudoeste 20 Sur 0 -- -- 94
2020-02-01 16:00:00 16.7 10 Sudoeste 21 Sudoeste 0 -- -- 94
2020-02-01 15:00:00 16.5 12 Sudoeste 26 Sudoeste 0 -- -- 96
2020-02-01 14:00:00 15.9 12 Sudoeste 26 Sudoeste 1 -- -- 98
2020-02-01 13:00:00 15.6 13 Sudoeste 22 Sudoeste 0 -- -- 99
2020-02-01 12:00:00 15.3 8 Sudoeste 16 Sudoeste 0.2 -- -- 100
2020-02-01 11:00:00 15 9 Sur 24 Sudoeste 0.2 -- -- 100
2020-02-01 10:00:00 14.5 8 Sudoeste 15 Sudoeste 0.6 -- -- 100
2020-02-01 09:00:00 14.2 6 Sudoeste 13 Sudoeste 0.2 -- -- 100
2020-02-01 08:00:00 14.2 8 Sudoeste 27 Sur 0.4 -- -- 100
2020-02-01 07:00:00 14.3 8 Sudoeste 19 Sudoeste 0 -- -- 100
2020-02-01 06:00:00 14 6 Sudoeste 22 Sudoeste 0.2 -- -- 100
2020-02-01 05:00:00 14 8 Sudoeste 21 Sudoeste 0 -- -- 100
2020-02-01 04:00:00 14.3 8 Sudoeste 28 Sudoeste 0 -- -- 100
2020-02-01 03:00:00 14.3 10 Sudoeste 30 Oeste 0.2 -- -- 100
2020-02-01 02:00:00 14.4 13 Sudoeste 29 Sudoeste 0.2 -- -- 100
2020-02-01 01:00:00 14.5 12 Sudoeste 28 Sudoeste 0 -- -- 100
2020-02-01 00:00:00 14.7 12 Sudoeste 32 Sudoeste 0 -- -- 100
2020-01-31 23:00:00 14.6 15 Sudoeste 40 Sudoeste 0.2 -- -- 100
2020-01-31 22:00:00 14.8 16 Sudoeste 32 Sudoeste 2.6 -- -- 100
2020-01-31 21:00:00 15.3 17 Sudoeste 33 Sur 3.8 -- -- 98
2020-01-31 20:00:00 15.4 15 Sudoeste 30 Sudeste 7.8 -- -- 99
2020-01-31 19:00:00 15.2 11 Sudoeste 35 Sudoeste 2.6 -- -- 98
2020-01-31 18:00:00 15.5 16 Sur 31 Sur 0 -- -- 95
2020-01-31 17:00:00 15.6 13 Sur 24 Sudoeste 0.2 -- -- 95
2020-01-31 16:00:00 15.4 10 Sur 24 Sudoeste 0.2 -- -- 97
2020-01-31 15:00:00 16 10 Sur 21 Sudoeste 0 -- -- 93
2020-01-31 14:00:00 15.8 8 Sur 17 Sur 0 -- -- 94
2020-01-31 13:00:00 15.5 9 Sur 21 Sur 0 -- -- 94
2020-01-31 12:00:00 15 7 Sur 20 Sur 0 -- -- 94
2020-01-31 11:00:00 14.1 3 Sudeste 13 Sur 0 -- -- 97
2020-01-31 10:00:00 13.7 8 Sur 17 Sur 0.2 -- -- 99
2020-01-31 09:00:00 13.2 3 Sur 7 Sur 0 -- -- 99
2020-01-31 08:00:00 13.3 4 Sur 13 Sudoeste 0 -- -- 99
2020-01-31 07:00:00 13.2 5 Sudoeste 12 Sudoeste 0 -- -- 100
2020-01-31 06:00:00 13.3 4 Sudoeste 12 Sudoeste 0 -- -- 100
2020-01-31 05:00:00 13.3 6 Sudoeste 11 Sudoeste 0 -- -- 100
2020-01-31 04:00:00 13.4 0 Calma 13 Sudoeste 0.2 -- -- 100
2020-01-31 03:00:00 13.6 2 Sudoeste 5 Sudoeste 0 -- -- 100
2020-01-31 02:00:00 13.7 0 Calma 10 Sudoeste 0.4 -- -- 100
2020-01-31 01:00:00 13.8 2 Sudoeste 6 Sudoeste 0.4 -- -- 100
2020-01-31 00:00:00 13.8 2 Sudoeste 13 Sudoeste 0 -- -- 100
2020-01-30 23:00:00 13.8 3 Sudoeste 8 Sudoeste 0 -- -- 100
2020-01-30 22:00:00 13.9 3 Sudoeste 12 Oeste 0 -- -- 100
2020-01-30 21:00:00 14 5 Sudoeste 10 Sudoeste 0.2 -- -- 100
2020-01-30 20:00:00 13.9 6 Sudoeste 14 Sudoeste 0 -- -- 100
2020-01-30 19:00:00 14 7 Sudoeste 18 Sudoeste 0.6 -- -- 100
2020-01-30 18:00:00 14.4 9 Sudoeste 19 Sudoeste 0 -- -- 100
2020-01-30 17:00:00 14.5 8 Sudoeste 23 Oeste 0 -- -- 100
2020-01-30 16:00:00 14.4 9 Sudoeste 25 Sudoeste 0.2 -- -- 100
2020-01-30 15:00:00 14.7 9 Sudoeste 22 Sudoeste 0.2 -- -- 99
2020-01-30 14:00:00 14.8 10 Sudoeste 21 Sur 0 -- -- 99
2020-01-30 13:00:00 13.9 10 Sudoeste 23 Sudoeste 0.4 -- -- 99
2020-01-30 12:00:00 14 14 Sur 32 Sur 0 -- -- 94
2020-01-30 11:00:00 13.6 18 Sudoeste 36 Sudoeste 0.2 -- -- 94
2020-01-30 10:00:00 13.2 15 Sur 29 Sur 0 -- -- 96
2020-01-30 09:00:00 12.9 14 Sur 24 Sur 0.2 -- -- 96
2020-01-30 08:00:00 12.7 9 Sudoeste 22 Sudoeste 0.6 -- -- 97
2020-01-30 07:00:00 12.9 10 Sur 27 Sudoeste 0 -- -- 94
2020-01-30 06:00:00 13.4 11 Sudoeste 26 Sur 0 -- -- 92
2020-01-30 05:00:00 13.7 13 Sur 28 Sur 0 -- -- 88
2020-01-30 04:00:00 13.8 12 Sur 32 Sur 0 -- -- 87
2020-01-30 03:00:00 13.9 10 Sur 30 Sudoeste 0.2 -- -- 87
2020-01-30 02:00:00 13.8 9 Sur 19 Sudoeste 0 -- -- 90
2020-01-30 01:00:00 14.1 6 Sur 22 Sur 0 -- -- 90
2020-01-30 00:00:00 14.3 9 Sudoeste 22 Sudoeste 0 -- -- 89
2020-01-29 23:00:00 14.4 11 Sudoeste 20 Sudoeste 0 -- -- 89
2020-01-29 22:00:00 14.4 9 Sudoeste 24 Sur 0 -- -- 88
2020-01-29 21:00:00 14.5 10 Sudoeste 30 Sur 0 -- -- 89
2020-01-29 20:00:00 14.4 13 Sudoeste 26 Sudoeste 0 -- -- 90
2020-01-29 19:00:00 14.3 11 Sudoeste 32 Sur 0 -- -- 91
2020-01-29 18:00:00 14.1 12 Sudoeste 27 Sudoeste 0.8 -- -- 94
2020-01-29 17:00:00 14 12 Sudoeste 32 Sur 2.4 -- -- 97
2020-01-29 16:00:00 14.2 16 Sudoeste 40 Sudoeste 2 -- -- 96
2020-01-29 15:00:00 14.1 15 Sudoeste 31 Sudoeste 1.4 -- -- 96
2020-01-29 14:00:00 14.4 18 Sudoeste 40 Sudoeste 0.6 -- -- 95
2020-01-29 13:00:00 13.9 17 Sudoeste 33 Sudoeste 0.6 -- -- 96
2020-01-29 12:00:00 14.3 14 Sudoeste 34 Sudoeste 0 -- -- 93
2020-01-29 11:00:00 14.1 16 Sudoeste 33 Sudoeste 0 -- -- 90
2020-01-29 10:00:00 13.7 12 Sudoeste 27 Sudoeste 1.6 -- -- 95
2020-01-29 09:00:00 13.5 10 Sudoeste 19 Sur 1.6 -- -- 94
2020-01-29 08:00:00 13.7 10 Sudoeste 22 Sur 2.6 -- -- 96
2020-01-29 07:00:00 13.5 6 Sudoeste 15 Sur 2 -- -- 98
2020-01-29 06:00:00 13.2 6 Sudoeste 16 Sur 0.4 -- -- 98
2020-01-29 05:00:00 13.3 4 Sur 16 Oeste 0.6 -- -- 97
2020-01-29 04:00:00 13.6 8 Sudoeste 19 Sudoeste 0.4 -- -- 99
2020-01-29 03:00:00 13.5 8 Sudoeste 17 Oeste 0.4 -- -- 98
2020-01-29 02:00:00 13.5 5 Sudoeste 18 Sudoeste 0.2 -- -- 99
2020-01-29 01:00:00 13.5 7 Sudoeste 22 Sudoeste 1.2 -- -- 100
2020-01-29 00:00:00 13.2 7 Sudoeste 10 Sudoeste 0 -- -- 100
2020-01-28 23:00:00 13 6 Sudoeste 17 Sudoeste 0 -- -- 100
2020-01-28 22:00:00 12.8 7 Sudoeste 21 Sudoeste 0 -- -- 100
2020-01-28 21:00:00 13.1 8 Sudoeste 25 Oeste 0 -- -- 100
2020-01-28 20:00:00 13.3 10 Sudoeste 27 Sudoeste 0 -- -- 100
2020-01-28 19:00:00 13.6 10 Sudoeste 25 Sudoeste 0.4 -- -- 100
2020-01-28 18:00:00 13.4 2 Sudoeste 8 Sudoeste 0.2 -- -- 99
2020-01-28 17:00:00 13.3 0 Calma 5 Sudoeste 0.4 -- -- 98
2020-01-28 16:00:00 13.1 0 Calma 6 Nordeste 0 -- -- 97
2020-01-28 15:00:00 12.7 2 Nordeste 6 Nordeste 0 -- -- 98
2020-01-28 14:00:00 12.6 2 Este 5 Este 0 -- -- 97
2020-01-28 13:00:00 12.3 2 Este 8 Este 0.6 -- -- 98
2020-01-28 12:00:00 11.8 4 Este 8 Este 0.2 -- -- 99
2020-01-28 11:00:00 11.2 3 Este 6 Sudeste 0.2 -- -- 100
2020-01-28 10:00:00 11 2 Sur 5 Sudeste 0 -- -- 100
2020-01-28 09:00:00 10.9 0 Calma 4 Nordeste 0 -- -- 100
2020-01-28 08:00:00 10.8 2 Sur 6 Sudeste 0.8 -- -- 99
2020-01-28 07:00:00 11 0 Calma 6 Sudeste 0.8 -- -- 98
2020-01-28 06:00:00 11.3 0 Calma 7 Sur 0 -- -- 96
2020-01-28 05:00:00 11.3 4 Sur 8 Sudoeste 0 -- -- 97
2020-01-28 04:00:00 11.2 2 Sur 5 Sur 0 -- -- 98
2020-01-28 03:00:00 11.4 2 Sudoeste 17 Sudoeste 0 -- -- 97
2020-01-28 02:00:00 11.9 4 Sudoeste 11 Oeste 0 -- -- 98
2020-01-28 01:00:00 11.8 4 Sudoeste 12 Oeste 0 -- -- 96
2020-01-28 00:00:00 12.1 6 Sudoeste 15 Oeste 0 -- -- 99
2020-01-27 23:00:00 12.2 7 Sudoeste 24 Sudoeste 0 -- -- 100
2020-01-27 22:00:00 12.4 10 Sudoeste 45 Sudoeste 0.4 -- -- 100
2020-01-27 21:00:00 13.2 20 Sudoeste 42 Sudoeste 0.4 -- -- 99
2020-01-27 20:00:00 12.9 20 Sudoeste 35 Sudoeste 0.4 -- -- 98
2020-01-27 19:00:00 12.1 14 Sudoeste 30 Sur 1 -- -- 96
2020-01-27 18:00:00 12.5 12 Sudoeste 23 Sudoeste 0.2 -- -- 93
2020-01-27 17:00:00 12.4 12 Sudoeste 30 Sudoeste 0.2 -- -- 95
2020-01-27 16:00:00 12.5 11 Sudoeste 30 Sudoeste 0.2 -- -- 93
2020-01-27 15:00:00 13 12 Sudoeste 31 Sudoeste 0 -- -- 89
2020-01-27 14:00:00 12.6 13 Sudoeste 24 Sudoeste 0 -- -- 90
2020-01-27 13:00:00 11.9 8 Sudoeste 17 Sudoeste 0.6 -- -- 92
2020-01-27 12:00:00 12.2 10 Sudoeste 20 Sudoeste 0 -- -- 90
2020-01-27 11:00:00 11.9 7 Sudoeste 18 Oeste 0 -- -- 98
2020-01-27 10:00:00 11.9 6 Sudoeste 19 Sudoeste 0 -- -- 100
2020-01-27 09:00:00 11.9 5 Sudoeste 17 Oeste 0.2 -- -- 100
2020-01-27 08:00:00 11.6 8 Sudoeste 27 Sur 3.2 -- -- 99
2020-01-27 07:00:00 13.1 17 Sudoeste 36 Sur 2 -- -- 97
2020-01-27 06:00:00 12.9 16 Sudoeste 46 Sudoeste 3.2 -- -- 95
2020-01-27 05:00:00 12.7 17 Sudoeste 33 Sudoeste 2 -- -- 97
2020-01-27 04:00:00 12.4 16 Sudoeste 27 Sur 1.4 -- -- 97
2020-01-27 03:00:00 12.2 15 Sudoeste 40 Sudoeste 1.2 -- -- 97
2020-01-27 02:00:00 11.8 13 Sudoeste 29 Sur 0.6 -- -- 95
2020-01-27 01:00:00 11.8 13 Sur 22 Sur 1.8 -- -- 95
2020-01-27 00:00:00 12.2 12 Sudoeste 31 Sudoeste 0.4 -- -- 92
2020-01-26 23:00:00 12.8 14 Sudoeste 30 Sur 0 -- -- 84
2020-01-26 22:00:00 12.7 13 Sur 27 Sur 0 -- -- 84
2020-01-26 21:00:00 12.5 13 Sur 31 Sur 0 -- -- 84
2020-01-26 20:00:00 12.3 13 Sur 28 Sur 0 -- -- 84
2020-01-26 19:00:00 12.4 9 Sur 24 Sudeste 0 -- -- 82
2020-01-26 18:00:00 12.7 12 Sudoeste 25 Sudoeste 0 -- -- 80
2020-01-26 17:00:00 13 11 Sudoeste 27 Sur 0 -- -- 78
2020-01-26 16:00:00 13.6 10 Sudoeste 24 Sudoeste 0 -- -- 75
2020-01-26 15:00:00 14 10 Sudoeste 25 Sudoeste 0 -- -- 75
2020-01-26 14:00:00 13.9 13 Sudoeste 23 Sur 0.2 -- -- 76
2020-01-26 13:00:00 12.2 9 Sudoeste 26 Sudoeste 0 -- -- 81
2020-01-26 12:00:00 11.5 9 Sur 22 Sur 0 -- -- 84
2020-01-26 11:00:00 10.9 7 Sur 16 Sur 0 -- -- 87
2020-01-26 10:00:00 9.6 5 Sur 15 Sudeste 0 -- -- 91
2020-01-26 09:00:00 8.5 5 Sur 16 Sur 0 -- -- 95
2020-01-26 08:00:00 8.5 3 Sudeste 8 Sur 0 -- -- 96
2020-01-26 07:00:00 8.8 0 Calma 9 Sur 0.6 -- -- 96
2020-01-26 06:00:00 9 2 Sudeste 8 Sur 0.2 -- -- 93
2020-01-26 05:00:00 8.7 3 Sur 8 Sudeste 0 -- -- 92
2020-01-26 04:00:00 8.2 4 Sudeste 7 Sudeste 0 -- -- 95
2020-01-26 03:00:00 7.6 3 Sudeste 5 Sudeste 0 -- -- 96
2020-01-26 02:00:00 7.8 2 Sudeste 5 Sudeste 0 -- -- 96
2020-01-26 01:00:00 8.2 2 Sudeste 6 Sudeste 0 -- -- 96
2020-01-26 00:00:00 8.5 2 Sudeste 5 Sudeste 0 -- -- 96
2020-01-25 23:00:00 8.6 2 Sudeste 7 Sudeste 0 -- -- 96
2020-01-25 22:00:00 9 2 Sudeste 4 Sudeste 0 -- -- 95
2020-01-25 21:00:00 9.3 0 Calma 2 Sudeste 0 -- -- 96
2020-01-25 20:00:00 9.6 0 Calma 4 Oeste 0 -- -- 94
2020-01-25 19:00:00 10.2 3 Sudoeste 10 Oeste 0 -- -- 91
2020-01-25 18:00:00 11.3 4 Oeste 15 Oeste 0 -- -- 87
2020-01-25 17:00:00 12.2 5 Sudoeste 16 Oeste 0 -- -- 80
2020-01-25 16:00:00 13.2 7 Sudoeste 15 Sudoeste 0 -- -- 70
2020-01-25 15:00:00 13.3 8 Sudoeste 16 Sudoeste 0 -- -- 67
2020-01-25 14:00:00 13.5 5 Sudoeste 11 Sudoeste 0 -- -- 61
2020-01-25 13:00:00 13.2 3 Oeste 7 Oeste 0 -- -- 61
2020-01-25 12:00:00 11 0 Calma 5 Nordeste 0 -- -- 69
2020-01-25 11:00:00 9 4 Nordeste 9 Este 0 -- -- 77
2020-01-25 10:00:00 7.1 3 Nordeste 10 Este 0 -- -- 85
2020-01-25 09:00:00 6.4 3 Este 10 Nordeste 0 -- -- 86
2020-01-25 08:00:00 6.2 3 Este 6 Este 0 -- -- 88
2020-01-25 07:00:00 6.3 2 Nordeste 7 Nordeste 0 -- -- 89
2020-01-25 06:00:00 6.8 3 Nordeste 8 Este 0 -- -- 88
2020-01-25 05:00:00 7.2 3 Este 8 Este 0 -- -- 88
2020-01-25 04:00:00 7.5 3 Nordeste 6 Nordeste 0 -- -- 87
2020-01-25 03:00:00 8.1 3 Nordeste 10 Este 0 -- -- 84
2020-01-25 02:00:00 7.9 3 Nordeste 8 Este 0 -- -- 85
2020-01-25 01:00:00 8.6 4 Este 8 Este 0 -- -- 84
2020-01-25 00:00:00 8.5 0 Calma 8 Este 0 -- -- 85
2020-01-24 23:00:00 9 3 Este 7 Nordeste 0 -- -- 85
2020-01-24 22:00:00 9.1 0 Calma 6 Nordeste 0 -- -- 85
2020-01-24 21:00:00 9.7 3 Sudeste 6 Sur 0 -- -- 82
2020-01-24 20:00:00 10.9 0 Calma 5 Sudoeste 0 -- -- 80
2020-01-24 19:00:00 11.6 0 Calma 8 Sudoeste 0 -- -- 75
2020-01-24 18:00:00 12.8 3 Sur 8 Sudoeste 0 -- -- 71
2020-01-24 17:00:00 13.5 3 Sudoeste 9 Oeste 0 -- -- 65
2020-01-24 16:00:00 14.1 3 Oeste 10 Norte 0 -- -- 61
2020-01-24 15:00:00 15.6 5 Norte 11 Norte 0 -- -- 52
2020-01-24 14:00:00 15.6 3 Este 13 Sudeste 0 -- -- 50
2020-01-24 13:00:00 14.8 4 Sudeste 9 Este 0 -- -- 58
2020-01-24 12:00:00 13.3 0 Calma 10 Este 0 -- -- 63
2020-01-24 11:00:00 10.9 5 Este 9 Este 0 -- -- 70
2020-01-24 10:00:00 8.6 4 Este 9 Este 0 -- -- 78
2020-01-24 09:00:00 8.1 2 Nordeste 8 Este 0 -- -- 80
2020-01-24 08:00:00 8.1 3 Este 11 Nordeste 0 -- -- 79
2020-01-24 07:00:00 7.9 2 Este 8 Sudeste 0 -- -- 79
2020-01-24 06:00:00 8.3 3 Sur 8 Sudeste 0 -- -- 79
2020-01-24 05:00:00 8.7 3 Sudeste 7 Sur 0 -- -- 77
2020-01-24 04:00:00 9.9 3 Sur 9 Sudeste 0 -- -- 72
2020-01-24 03:00:00 9.9 0 Calma 8 Este 0 -- -- 73
2020-01-24 02:00:00 10.1 3 Este 9 Este 0 -- -- 73
2020-01-24 01:00:00 10 2 Sudeste 7 Este 0 -- -- 73
2020-01-24 00:00:00 9.8 3 Este 9 Este 0 -- -- 77
2020-01-23 23:00:00 9.1 2 Nordeste 5 Norte 0 -- -- 82
2020-01-23 22:00:00 9.7 0 Calma 5 Nordeste 0 -- -- 79
2020-01-23 21:00:00 9.3 0 Calma 8 Sudeste 0 -- -- 78
2020-01-23 20:00:00 9 4 Sudeste 7 Sudeste 0 -- -- 81
2020-01-23 19:00:00 9.9 0 Calma 7 Sudeste 0 -- -- 74
2020-01-23 18:00:00 11.6 3 Norte 9 Este 0 -- -- 64
2020-01-23 17:00:00 12.8 4 Este 9 Nordeste 0 -- -- 61
2020-01-23 16:00:00 12.2 4 Nordeste 13 Este 0 -- -- 65
2020-01-23 15:00:00 11.6 5 Sudeste 17 Sudeste 0 -- -- 65
2020-01-23 14:00:00 11.8 4 Este 14 Sudeste 0 -- -- 63
2020-01-23 13:00:00 11 5 Este 14 Nordeste 0 -- -- 62
2020-01-23 12:00:00 10.5 4 Este 11 Nordeste 0 -- -- 65
2020-01-23 11:00:00 10.1 6 Este 18 Este 0 -- -- 65
2020-01-23 10:00:00 9.6 9 Este 17 Este 0 -- -- 66
2020-01-23 09:00:00 8.9 5 Este 13 Este 0 -- -- 70
2020-01-23 08:00:00 8.8 6 Este 17 Este 0 -- -- 71
2020-01-23 07:00:00 9.1 5 Este 15 Este 0 -- -- 71
2020-01-23 06:00:00 9.6 7 Este 15 Este 0 -- -- 67
2020-01-23 05:00:00 10 4 Nordeste 12 Nordeste 0 -- -- 67
2020-01-23 04:00:00 10.1 4 Nordeste 12 Este 0 -- -- 72
2020-01-23 03:00:00 10.1 3 Este 13 Este 0 -- -- 71
2020-01-23 02:00:00 10.2 5 Este 13 Este 0 -- -- 72
2020-01-23 01:00:00 10.5 5 Nordeste 12 Nordeste 0 -- -- 72
2020-01-23 00:00:00 10.5 4 Nordeste 12 Este 0 -- -- 71
2020-01-22 23:00:00 10.7 5 Nordeste 19 Nordeste 0 -- -- 70
2020-01-22 22:00:00 11.1 8 Nordeste 26 Nordeste 0 -- -- 68
2020-01-22 21:00:00 11.2 7 Nordeste 19 Nordeste 0 -- -- 68
2020-01-22 20:00:00 11.7 6 Nordeste 31 Nordeste 0 -- -- 68
2020-01-22 19:00:00 12.8 12 Nordeste 26 Nordeste 0 -- -- 65
2020-01-22 18:00:00 14.4 8 Nordeste 19 Este 0 -- -- 60
2020-01-22 17:00:00 14.7 7 Nordeste 32 Nordeste 0 -- -- 60
2020-01-22 16:00:00 15.2 9 Nordeste 23 Nordeste 0 -- -- 59
2020-01-22 15:00:00 16.3 8 Nordeste 26 Este 0 -- -- 56
2020-01-22 14:00:00 17 8 Nordeste 23 Este 0 -- -- 51
2020-01-22 13:00:00 15.7 8 Nordeste 21 Este 0 -- -- 51
2020-01-22 12:00:00 14 6 Nordeste 17 Este 0 -- -- 61
2020-01-22 11:00:00 11.5 3 Este 14 Nordeste 0 -- -- 67
2020-01-22 10:00:00 9.9 5 Sudeste 15 Este 0 -- -- 70
2020-01-22 09:00:00 9.6 8 Este 21 Este 0 -- -- 69
2020-01-22 08:00:00 9.4 8 Este 17 Este 0 -- -- 68
2020-01-22 07:00:00 9.4 7 Nordeste 21 Nordeste 0 -- -- 67
2020-01-22 06:00:00 8.4 7 Nordeste 14 Este 0 -- -- 68
2020-01-22 05:00:00 7.2 2 Este 12 Este 0 -- -- 71
2020-01-22 04:00:00 7.7 6 Este 13 Este 0 -- -- 69
2020-01-22 03:00:00 7.3 6 Este 14 Este 0 -- -- 72
2020-01-22 02:00:00 7.3 3 Este 14 Nordeste 0 -- -- 73
2020-01-22 01:00:00 8.5 4 Este 30 Nordeste 0 -- -- 68
2020-01-22 00:00:00 8.6 10 Nordeste 28 Nordeste 0 -- -- 68